sensor_id;sensor_type;location;lat;lon;timestamp;temperature;humidity
22813;DHT22;11573;51.334;3.244;2022-12-29T00:01:08;11.00;99.90
22813;DHT22;11573;51.334;3.244;2022-12-29T00:03:35;11.00;99.90
22813;DHT22;11573;51.334;3.244;2022-12-29T00:06:03;10.90;99.90
22813;DHT22;11573;51.334;3.244;2022-12-29T00:08:30;10.90;99.90
22813;DHT22;11573;51.334;3.244;2022-12-29T00:11:16;10.90;99.90
22813;DHT22;11573;51.334;3.244;2022-12-29T00:13:43;10.80;99.90
22813;DHT22;11573;51.334;3.244;2022-12-29T00:16:30;10.80;99.90
22813;DHT22;11573;51.334;3.244;2022-12-29T00:18:57;10.80;99.90
22813;DHT22;11573;51.334;3.244;2022-12-29T00:21:25;10.80;99.90
22813;DHT22;11573;51.334;3.244;2022-12-29T00:24:20;10.80;99.90
22813;DHT22;11573;51.334;3.244;2022-12-29T00:29:49;10.90;99.90
22813;DHT22;11573;51.334;3.244;2022-12-29T00:32:34;10.90;99.90
22813;DHT22;11573;51.334;3.244;2022-12-29T00:35:24;10.90;99.90
22813;DHT22;11573;51.334;3.244;2022-12-29T00:37:52;10.90;99.90
22813;DHT22;11573;51.334;3.244;2022-12-29T00:40:40;10.80;99.90
22813;DHT22;11573;51.334;3.244;2022-12-29T00:43:26;10.90;99.90
22813;DHT22;11573;51.334;3.244;2022-12-29T00:46:11;10.90;99.90
22813;DHT22;11573;51.334;3.244;2022-12-29T00:48:45;10.90;99.90
22813;DHT22;11573;51.334;3.244;2022-12-29T00:51:31;10.90;99.90
22813;DHT22;11573;51.334;3.244;2022-12-29T00:53:58;11.00;99.90
22813;DHT22;11573;51.334;3.244;2022-12-29T00:56:25;11.00;99.90
22813;DHT22;11573;51.334;3.244;2022-12-29T00:58:52;11.00;99.90
22813;DHT22;11573;51.334;3.244;2022-12-29T01:01:18;11.00;99.90
22813;DHT22;11573;51.334;3.244;2022-12-29T01:03:45;10.90;99.90
22813;DHT22;11573;51.334;3.244;2022-12-29T01:06:12;10.90;99.90
22813;DHT22;11573;51.334;3.244;2022-12-29T01:08:39;10.90;99.90
22813;DHT22;11573;51.334;3.244;2022-12-29T01:11:12;11.00;99.90
22813;DHT22;11573;51.334;3.244;2022-12-29T01:13:39;11.00;99.90
22813;DHT22;11573;51.334;3.244;2022-12-29T01:16:07;11.10;99.90
22813;DHT22;11573;51.334;3.244;2022-12-29T01:18:34;11.10;99.90
22813;DHT22;11573;51.334;3.244;2022-12-29T01:21:04;11.10;99.90
22813;DHT22;11573;51.334;3.244;2022-12-29T01:23:33;11.10;99.90
22813;DHT22;11573;51.334;3.244;2022-12-29T01:26:11;11.00;99.90
22813;DHT22;11573;51.334;3.244;2022-12-29T01:28:38;10.90;99.90
22813;DHT22;11573;51.334;3.244;2022-12-29T01:31:07;10.90;99.90
22813;DHT22;11573;51.334;3.244;2022-12-29T01:33:36;10.90;99.90
22813;DHT22;11573;51.334;3.244;2022-12-29T01:36:21;10.90;99.90
22813;DHT22;11573;51.334;3.244;2022-12-29T01:38:48;10.90;99.90
22813;DHT22;11573;51.334;3.244;2022-12-29T01:41:16;10.80;99.90
22813;DHT22;11573;51.334;3.244;2022-12-29T01:43:50;10.90;99.90
22813;DHT22;11573;51.334;3.244;2022-12-29T01:46:41;10.80;99.90
22813;DHT22;11573;51.334;3.244;2022-12-29T01:49:42;10.70;99.90
22813;DHT22;11573;51.334;3.244;2022-12-29T01:52:05;10.70;99.90
22813;DHT22;11573;51.334;3.244;2022-12-29T01:54:46;10.70;99.90
22813;DHT22;11573;51.334;3.244;2022-12-29T01:57:24;10.70;99.90
22813;DHT22;11573;51.334;3.244;2022-12-29T01:59:59;10.70;99.90
22813;DHT22;11573;51.334;3.244;2022-12-29T02:02:39;10.60;99.90
22813;DHT22;11573;51.334;3.244;2022-12-29T02:05:18;10.60;99.90
22813;DHT22;11573;51.334;3.244;2022-12-29T02:07:47;10.60;99.90
22813;DHT22;11573;51.334;3.244;2022-12-29T02:10:15;10.60;99.90
22813;DHT22;11573;51.334;3.244;2022-12-29T02:12:42;10.70;99.90
22813;DHT22;11573;51.334;3.244;2022-12-29T02:15:09;10.70;99.90
22813;DHT22;11573;51.334;3.244;2022-12-29T02:18:00;10.80;99.90
22813;DHT22;11573;51.334;3.244;2022-12-29T02:26:19;10.90;99.90
22813;DHT22;11573;51.334;3.244;2022-12-29T02:31:44;10.80;99.90
22813;DHT22;11573;51.334;3.244;2022-12-29T02:37:00;10.70;99.90
22813;DHT22;11573;51.334;3.244;2022-12-29T02:40:04;10.60;99.90
22813;DHT22;11573;51.334;3.244;2022-12-29T02:42:46;10.50;99.90
22813;DHT22;11573;51.334;3.244;2022-12-29T02:50:33;10.30;99.90
22813;DHT22;11573;51.334;3.244;2022-12-29T02:53:13;10.30;99.90
22813;DHT22;11573;51.334;3.244;2022-12-29T02:55:49;10.30;99.90
22813;DHT22;11573;51.334;3.244;2022-12-29T02:58:19;10.30;99.90
22813;DHT22;11573;51.334;3.244;2022-12-29T03:01:01;10.30;99.90
22813;DHT22;11573;51.334;3.244;2022-12-29T03:07:29;10.40;99.90
22813;DHT22;11573;51.334;3.244;2022-12-29T03:09:49;10.40;99.90
22813;DHT22;11573;51.334;3.244;2022-12-29T03:12:32;10.40;99.90
22813;DHT22;11573;51.334;3.244;2022-12-29T03:15:26;10.40;99.90
22813;DHT22;11573;51.334;3.244;2022-12-29T03:18:22;10.40;99.90
22813;DHT22;11573;51.334;3.244;2022-12-29T03:21:14;10.40;99.90
22813;DHT22;11573;51.334;3.244;2022-12-29T03:23:45;10.40;99.90
22813;DHT22;11573;51.334;3.244;2022-12-29T03:26:16;10.40;99.90
22813;DHT22;11573;51.334;3.244;2022-12-29T03:28:53;10.50;99.90
22813;DHT22;11573;51.334;3.244;2022-12-29T03:31:24;10.50;99.90
22813;DHT22;11573;51.334;3.244;2022-12-29T03:33:54;10.50;99.90
22813;DHT22;11573;51.334;3.244;2022-12-29T03:36:30;10.50;99.90
22813;DHT22;11573;51.334;3.244;2022-12-29T03:39:07;10.50;99.90
22813;DHT22;11573;51.334;3.244;2022-12-29T03:41:35;10.60;99.90
22813;DHT22;11573;51.334;3.244;2022-12-29T03:44:06;10.50;99.90
22813;DHT22;11573;51.334;3.244;2022-12-29T03:46:33;10.50;99.90
22813;DHT22;11573;51.334;3.244;2022-12-29T03:49:01;10.40;99.90
22813;DHT22;11573;51.334;3.244;2022-12-29T03:51:28;10.40;99.90
22813;DHT22;11573;51.334;3.244;2022-12-29T03:53:56;10.40;99.90
22813;DHT22;11573;51.334;3.244;2022-12-29T03:56:24;10.30;99.90
22813;DHT22;11573;51.334;3.244;2022-12-29T03:58:52;10.30;99.90
22813;DHT22;11573;51.334;3.244;2022-12-29T04:01:29;10.30;99.90
22813;DHT22;11573;51.334;3.244;2022-12-29T04:03:57;10.20;99.90
22813;DHT22;11573;51.334;3.244;2022-12-29T04:06:24;10.30;99.90
22813;DHT22;11573;51.334;3.244;2022-12-29T04:09:00;10.40;99.90
22813;DHT22;11573;51.334;3.244;2022-12-29T04:11:32;10.40;99.90
22813;DHT22;11573;51.334;3.244;2022-12-29T04:14:02;10.40;99.90
22813;DHT22;11573;51.334;3.244;2022-12-29T04:16:31;10.40;99.90
22813;DHT22;11573;51.334;3.244;2022-12-29T04:18:59;10.40;99.90
22813;DHT22;11573;51.334;3.244;2022-12-29T04:21:26;10.40;99.90
22813;DHT22;11573;51.334;3.244;2022-12-29T04:23:53;10.40;99.90
22813;DHT22;11573;51.334;3.244;2022-12-29T04:26:21;10.40;99.90
22813;DHT22;11573;51.334;3.244;2022-12-29T04:28:57;10.30;99.90
22813;DHT22;11573;51.334;3.244;2022-12-29T04:31:37;10.20;99.90
22813;DHT22;11573;51.334;3.244;2022-12-29T04:34:05;10.20;99.90
22813;DHT22;11573;51.334;3.244;2022-12-29T04:36:32;10.20;99.90
22813;DHT22;11573;51.334;3.244;2022-12-29T04:39:00;10.30;99.90
22813;DHT22;11573;51.334;3.244;2022-12-29T04:41:27;10.30;99.90
22813;DHT22;11573;51.334;3.244;2022-12-29T04:43:55;10.30;99.90
22813;DHT22;11573;51.334;3.244;2022-12-29T04:46:43;10.40;99.90
22813;DHT22;11573;51.334;3.244;2022-12-29T04:49:21;10.40;99.90
22813;DHT22;11573;51.334;3.244;2022-12-29T04:51:54;10.40;99.90
22813;DHT22;11573;51.334;3.244;2022-12-29T04:54:22;10.40;99.90
22813;DHT22;11573;51.334;3.244;2022-12-29T04:56:56;10.40;99.90
22813;DHT22;11573;51.334;3.244;2022-12-29T04:59:23;10.40;99.90
22813;DHT22;11573;51.334;3.244;2022-12-29T05:01:54;10.40;99.90
22813;DHT22;11573;51.334;3.244;2022-12-29T05:04:21;10.40;99.90
22813;DHT22;11573;51.334;3.244;2022-12-29T05:06:48;10.50;99.90
22813;DHT22;11573;51.334;3.244;2022-12-29T05:09:16;10.40;99.90
22813;DHT22;11573;51.334;3.244;2022-12-29T05:11:44;10.50;99.90
22813;DHT22;11573;51.334;3.244;2022-12-29T05:14:11;10.40;99.90
22813;DHT22;11573;51.334;3.244;2022-12-29T05:16:38;10.50;99.90
22813;DHT22;11573;51.334;3.244;2022-12-29T05:19:05;10.50;99.90
22813;DHT22;11573;51.334;3.244;2022-12-29T05:21:33;10.50;99.90
22813;DHT22;11573;51.334;3.244;2022-12-29T05:24:00;10.40;99.90
22813;DHT22;11573;51.334;3.244;2022-12-29T05:26:28;10.40;99.90
22813;DHT22;11573;51.334;3.244;2022-12-29T05:29:03;10.30;99.90
22813;DHT22;11573;51.334;3.244;2022-12-29T05:31:31;10.30;99.90
22813;DHT22;11573;51.334;3.244;2022-12-29T05:33:59;10.20;99.90
22813;DHT22;11573;51.334;3.244;2022-12-29T05:36:27;10.00;99.90
22813;DHT22;11573;51.334;3.244;2022-12-29T05:39:02;9.80;99.90
22813;DHT22;11573;51.334;3.244;2022-12-29T05:41:30;9.70;99.90
22813;DHT22;11573;51.334;3.244;2022-12-29T05:44:15;9.50;99.90
22813;DHT22;11573;51.334;3.244;2022-12-29T05:47:02;9.50;99.90
22813;DHT22;11573;51.334;3.244;2022-12-29T05:49:58;9.50;99.90
22813;DHT22;11573;51.334;3.244;2022-12-29T05:52:38;9.50;99.90
22813;DHT22;11573;51.334;3.244;2022-12-29T05:55:05;9.60;99.90
22813;DHT22;11573;51.334;3.244;2022-12-29T05:57:35;9.60;99.90
22813;DHT22;11573;51.334;3.244;2022-12-29T06:00:09;9.50;99.90
22813;DHT22;11573;51.334;3.244;2022-12-29T06:02:44;9.50;99.90
22813;DHT22;11573;51.334;3.244;2022-12-29T06:05:12;9.50;99.90
22813;DHT22;11573;51.334;3.244;2022-12-29T06:07:39;9.40;99.90
22813;DHT22;11573;51.334;3.244;2022-12-29T06:10:07;9.50;99.90
22813;DHT22;11573;51.334;3.244;2022-12-29T06:12:42;9.50;99.90
22813;DHT22;11573;51.334;3.244;2022-12-29T06:15:09;9.40;99.90
22813;DHT22;11573;51.334;3.244;2022-12-29T06:17:39;9.40;99.90
22813;DHT22;11573;51.334;3.244;2022-12-29T06:20:08;9.50;99.90
22813;DHT22;11573;51.334;3.244;2022-12-29T06:22:37;9.50;99.90
22813;DHT22;11573;51.334;3.244;2022-12-29T06:25:04;9.50;99.90
22813;DHT22;11573;51.334;3.244;2022-12-29T06:27:33;9.40;99.90
22813;DHT22;11573;51.334;3.244;2022-12-29T06:30:00;9.50;99.90
22813;DHT22;11573;51.334;3.244;2022-12-29T06:32:28;9.50;99.90
22813;DHT22;11573;51.334;3.244;2022-12-29T06:35:00;9.40;99.90
22813;DHT22;11573;51.334;3.244;2022-12-29T06:37:27;9.40;99.90
22813;DHT22;11573;51.334;3.244;2022-12-29T06:39:54;9.50;99.90
22813;DHT22;11573;51.334;3.244;2022-12-29T06:42:25;9.60;99.90
22813;DHT22;11573;51.334;3.244;2022-12-29T06:45:17;9.70;99.90
22813;DHT22;11573;51.334;3.244;2022-12-29T06:47:44;9.80;99.90
22813;DHT22;11573;51.334;3.244;2022-12-29T06:50:11;9.80;99.90
22813;DHT22;11573;51.334;3.244;2022-12-29T06:52:38;9.90;99.90
22813;DHT22;11573;51.334;3.244;2022-12-29T06:55:05;9.90;99.90
22813;DHT22;11573;51.334;3.244;2022-12-29T06:57:32;10.00;99.90
22813;DHT22;11573;51.334;3.244;2022-12-29T06:59:59;10.00;99.90
22813;DHT22;11573;51.334;3.244;2022-12-29T07:02:26;10.00;99.90
22813;DHT22;11573;51.334;3.244;2022-12-29T07:04:53;10.00;99.90
22813;DHT22;11573;51.334;3.244;2022-12-29T07:07:20;10.00;99.90
22813;DHT22;11573;51.334;3.244;2022-12-29T07:09:47;10.00;99.90
22813;DHT22;11573;51.334;3.244;2022-12-29T07:12:14;10.00;99.90
22813;DHT22;11573;51.334;3.244;2022-12-29T07:14:42;10.10;99.90
22813;DHT22;11573;51.334;3.244;2022-12-29T07:17:10;10.10;99.90
22813;DHT22;11573;51.334;3.244;2022-12-29T07:19:37;10.10;99.90
22813;DHT22;11573;51.334;3.244;2022-12-29T07:22:04;10.10;99.90
22813;DHT22;11573;51.334;3.244;2022-12-29T07:24:30;10.10;99.90
22813;DHT22;11573;51.334;3.244;2022-12-29T07:26:57;10.10;99.90
22813;DHT22;11573;51.334;3.244;2022-12-29T07:29:24;10.00;99.90
22813;DHT22;11573;51.334;3.244;2022-12-29T07:31:51;9.90;99.90
22813;DHT22;11573;51.334;3.244;2022-12-29T07:34:18;9.80;99.90
22813;DHT22;11573;51.334;3.244;2022-12-29T07:36:45;9.80;99.90
22813;DHT22;11573;51.334;3.244;2022-12-29T07:39:12;9.70;99.90
22813;DHT22;11573;51.334;3.244;2022-12-29T07:41:39;9.60;99.90
22813;DHT22;11573;51.334;3.244;2022-12-29T07:44:10;9.50;99.90
22813;DHT22;11573;51.334;3.244;2022-12-29T07:46:55;9.60;99.90
22813;DHT22;11573;51.334;3.244;2022-12-29T07:49:23;9.60;99.90
22813;DHT22;11573;51.334;3.244;2022-12-29T07:51:50;9.50;99.90
22813;DHT22;11573;51.334;3.244;2022-12-29T07:54:17;9.50;99.90
22813;DHT22;11573;51.334;3.244;2022-12-29T07:56:47;9.50;99.90
22813;DHT22;11573;51.334;3.244;2022-12-29T07:59:14;9.40;99.90
22813;DHT22;11573;51.334;3.244;2022-12-29T08:01:40;9.40;99.90
22813;DHT22;11573;51.334;3.244;2022-12-29T08:04:08;9.40;99.90
22813;DHT22;11573;51.334;3.244;2022-12-29T08:06:35;9.30;99.90
22813;DHT22;11573;51.334;3.244;2022-12-29T08:09:04;9.30;99.90
22813;DHT22;11573;51.334;3.244;2022-12-29T08:11:43;9.30;99.90
22813;DHT22;11573;51.334;3.244;2022-12-29T08:14:11;9.30;99.90
22813;DHT22;11573;51.334;3.244;2022-12-29T08:16:38;9.30;99.90
22813;DHT22;11573;51.334;3.244;2022-12-29T08:19:05;9.40;99.90
22813;DHT22;11573;51.334;3.244;2022-12-29T08:21:32;9.40;99.90
22813;DHT22;11573;51.334;3.244;2022-12-29T08:23:59;9.40;99.90
22813;DHT22;11573;51.334;3.244;2022-12-29T08:26:26;9.40;99.90
22813;DHT22;11573;51.334;3.244;2022-12-29T08:28:53;9.40;99.90
22813;DHT22;11573;51.334;3.244;2022-12-29T08:31:23;9.40;99.90
22813;DHT22;11573;51.334;3.244;2022-12-29T08:33:50;9.30;99.90
22813;DHT22;11573;51.334;3.244;2022-12-29T08:36:18;9.40;99.90
22813;DHT22;11573;51.334;3.244;2022-12-29T08:38:45;9.40;99.90
22813;DHT22;11573;51.334;3.244;2022-12-29T08:41:12;9.40;99.90
22813;DHT22;11573;51.334;3.244;2022-12-29T08:43:39;9.50;99.90
22813;DHT22;11573;51.334;3.244;2022-12-29T08:46:06;9.50;99.90
22813;DHT22;11573;51.334;3.244;2022-12-29T08:48:33;9.60;99.90
22813;DHT22;11573;51.334;3.244;2022-12-29T08:51:00;9.60;99.90
22813;DHT22;11573;51.334;3.244;2022-12-29T08:53:27;9.60;99.90
22813;DHT22;11573;51.334;3.244;2022-12-29T08:55:57;9.70;99.90
22813;DHT22;11573;51.334;3.244;2022-12-29T08:58:35;9.70;99.90
22813;DHT22;11573;51.334;3.244;2022-12-29T09:01:03;9.80;99.90
22813;DHT22;11573;51.334;3.244;2022-12-29T09:03:30;9.80;99.90
22813;DHT22;11573;51.334;3.244;2022-12-29T09:06:17;9.90;99.90
22813;DHT22;11573;51.334;3.244;2022-12-29T09:08:44;9.90;99.90
22813;DHT22;11573;51.334;3.244;2022-12-29T09:11:18;9.90;99.90
22813;DHT22;11573;51.334;3.244;2022-12-29T09:13:47;9.90;99.90
22813;DHT22;11573;51.334;3.244;2022-12-29T09:16:15;9.90;99.90
22813;DHT22;11573;51.334;3.244;2022-12-29T09:18:42;9.90;99.90
22813;DHT22;11573;51.334;3.244;2022-12-29T09:21:11;9.90;99.90
22813;DHT22;11573;51.334;3.244;2022-12-29T09:23:38;9.90;99.90
22813;DHT22;11573;51.334;3.244;2022-12-29T09:26:06;10.00;99.90
22813;DHT22;11573;51.334;3.244;2022-12-29T09:28:34;10.10;99.90
22813;DHT22;11573;51.334;3.244;2022-12-29T09:31:01;10.20;99.90
22813;DHT22;11573;51.334;3.244;2022-12-29T09:33:29;10.30;99.90
22813;DHT22;11573;51.334;3.244;2022-12-29T09:35:57;10.30;99.90
22813;DHT22;11573;51.334;3.244;2022-12-29T09:38:26;10.40;99.90
22813;DHT22;11573;51.334;3.244;2022-12-29T09:41:20;10.30;99.90
22813;DHT22;11573;51.334;3.244;2022-12-29T09:51:37;10.40;99.90
22813;DHT22;11573;51.334;3.244;2022-12-29T09:54:24;10.30;99.90
22813;DHT22;11573;51.334;3.244;2022-12-29T09:56:53;10.20;99.90
22813;DHT22;11573;51.334;3.244;2022-12-29T09:59:24;10.20;99.90
22813;DHT22;11573;51.334;3.244;2022-12-29T10:04:50;10.10;99.90
22813;DHT22;11573;51.334;3.244;2022-12-29T10:10:24;10.20;99.90
22813;DHT22;11573;51.334;3.244;2022-12-29T10:24:12;10.00;99.90
22813;DHT22;11573;51.334;3.244;2022-12-29T10:26:41;9.90;99.90
22813;DHT22;11573;51.334;3.244;2022-12-29T10:29:19;9.90;99.90
22813;DHT22;11573;51.334;3.244;2022-12-29T10:31:58;9.90;99.90
22813;DHT22;11573;51.334;3.244;2022-12-29T10:34:47;10.00;99.90
22813;DHT22;11573;51.334;3.244;2022-12-29T10:37:30;10.00;99.90
22813;DHT22;11573;51.334;3.244;2022-12-29T10:40:02;9.90;99.90
22813;DHT22;11573;51.334;3.244;2022-12-29T10:42:42;10.00;99.90
22813;DHT22;11573;51.334;3.244;2022-12-29T10:45:14;10.10;99.90
22813;DHT22;11573;51.334;3.244;2022-12-29T10:48:09;10.20;99.90
22813;DHT22;11573;51.334;3.244;2022-12-29T10:50:40;10.20;99.90
22813;DHT22;11573;51.334;3.244;2022-12-29T10:53:19;10.20;99.90
22813;DHT22;11573;51.334;3.244;2022-12-29T10:55:47;10.20;99.90
22813;DHT22;11573;51.334;3.244;2022-12-29T10:58:15;10.30;99.90
22813;DHT22;11573;51.334;3.244;2022-12-29T11:00:43;10.30;99.90
22813;DHT22;11573;51.334;3.244;2022-12-29T11:08:28;10.60;99.90
22813;DHT22;11573;51.334;3.244;2022-12-29T11:11:03;10.60;99.90
22813;DHT22;11573;51.334;3.244;2022-12-29T11:13:33;10.70;99.90
22813;DHT22;11573;51.334;3.244;2022-12-29T11:16:05;10.80;99.90
22813;DHT22;11573;51.334;3.244;2022-12-29T11:18:38;10.80;99.90
22813;DHT22;11573;51.334;3.244;2022-12-29T11:21:44;10.90;99.90
22813;DHT22;11573;51.334;3.244;2022-12-29T11:26:46;11.00;99.90
22813;DHT22;11573;51.334;3.244;2022-12-29T11:29:17;11.00;99.90
22813;DHT22;11573;51.334;3.244;2022-12-29T11:36:49;10.90;99.90
22813;DHT22;11573;51.334;3.244;2022-12-29T11:39:32;10.90;99.90
22813;DHT22;11573;51.334;3.244;2022-12-29T11:42:01;10.70;99.90
22813;DHT22;11573;51.334;3.244;2022-12-29T11:44:35;10.60;99.90
22813;DHT22;11573;51.334;3.244;2022-12-29T11:47:05;10.40;99.90
22813;DHT22;11573;51.334;3.244;2022-12-29T11:49:34;10.20;99.90
22813;DHT22;11573;51.334;3.244;2022-12-29T11:52:01;10.10;99.90
22813;DHT22;11573;51.334;3.244;2022-12-29T11:54:34;10.00;99.90
22813;DHT22;11573;51.334;3.244;2022-12-29T11:57:14;10.10;99.90
22813;DHT22;11573;51.334;3.244;2022-12-29T11:59:49;10.10;99.90
22813;DHT22;11573;51.334;3.244;2022-12-29T12:02:36;10.30;99.90
22813;DHT22;11573;51.334;3.244;2022-12-29T12:05:24;10.40;99.90
22813;DHT22;11573;51.334;3.244;2022-12-29T12:11:01;10.60;99.90
22813;DHT22;11573;51.334;3.244;2022-12-29T12:16:17;10.40;99.90
22813;DHT22;11573;51.334;3.244;2022-12-29T12:18:58;10.30;99.90
22813;DHT22;11573;51.334;3.244;2022-12-29T12:21:37;10.30;99.90
22813;DHT22;11573;51.334;3.244;2022-12-29T12:26:55;10.10;99.90
22813;DHT22;11573;51.334;3.244;2022-12-29T12:29:33;10.10;99.90
22813;DHT22;11573;51.334;3.244;2022-12-29T12:34:55;10.00;99.90
22813;DHT22;11573;51.334;3.244;2022-12-29T12:41:30;10.00;99.90
22813;DHT22;11573;51.334;3.244;2022-12-29T12:46:19;10.00;99.90
22813;DHT22;11573;51.334;3.244;2022-12-29T12:49:04;10.00;99.90
22813;DHT22;11573;51.334;3.244;2022-12-29T12:57:21;10.20;99.90
22813;DHT22;11573;51.334;3.244;2022-12-29T13:00:00;10.20;99.90
22813;DHT22;11573;51.334;3.244;2022-12-29T13:30:19;9.70;99.90
22813;DHT22;11573;51.334;3.244;2022-12-29T13:33:16;9.70;99.90
22813;DHT22;11573;51.334;3.244;2022-12-29T13:36:08;9.70;99.90
22813;DHT22;11573;51.334;3.244;2022-12-29T13:38:50;9.70;99.90
22813;DHT22;11573;51.334;3.244;2022-12-29T13:43:48;9.90;99.90
22813;DHT22;11573;51.334;3.244;2022-12-29T13:46:28;9.80;99.90
22813;DHT22;11573;51.334;3.244;2022-12-29T13:49:06;9.70;99.90
22813;DHT22;11573;51.334;3.244;2022-12-29T13:51:34;9.60;99.90
22813;DHT22;11573;51.334;3.244;2022-12-29T13:59:38;9.40;99.90
22813;DHT22;11573;51.334;3.244;2022-12-29T14:05:04;9.20;99.90
22813;DHT22;11573;51.334;3.244;2022-12-29T14:07:39;9.20;99.90
22813;DHT22;11573;51.334;3.244;2022-12-29T14:15:31;9.10;99.90
22813;DHT22;11573;51.334;3.244;2022-12-29T14:18:03;9.10;99.90
22813;DHT22;11573;51.334;3.244;2022-12-29T14:20:32;9.00;99.90
22813;DHT22;11573;51.334;3.244;2022-12-29T14:23:01;9.00;99.90
22813;DHT22;11573;51.334;3.244;2022-12-29T14:28:35;9.00;99.90
22813;DHT22;11573;51.334;3.244;2022-12-29T14:44:51;8.80;99.90
22813;DHT22;11573;51.334;3.244;2022-12-29T14:47:42;8.80;99.90
22813;DHT22;11573;51.334;3.244;2022-12-29T14:52:49;8.90;99.90
22813;DHT22;11573;51.334;3.244;2022-12-29T14:55:37;8.90;99.90
22813;DHT22;11573;51.334;3.244;2022-12-29T14:58:19;8.90;99.90
22813;DHT22;11573;51.334;3.244;2022-12-29T15:00:48;8.90;99.90
22813;DHT22;11573;51.334;3.244;2022-12-29T15:03:28;8.90;99.90
22813;DHT22;11573;51.334;3.244;2022-12-29T15:06:06;8.90;99.90
22813;DHT22;11573;51.334;3.244;2022-12-29T15:14:35;8.70;99.90
22813;DHT22;11573;51.334;3.244;2022-12-29T15:17:10;8.70;99.90
22813;DHT22;11573;51.334;3.244;2022-12-29T15:19:38;8.80;99.90
22813;DHT22;11573;51.334;3.244;2022-12-29T15:22:05;8.80;99.90
22813;DHT22;11573;51.334;3.244;2022-12-29T15:24:32;8.80;99.90
22813;DHT22;11573;51.334;3.244;2022-12-29T15:27:14;8.90;99.90
22813;DHT22;11573;51.334;3.244;2022-12-29T15:29:44;8.80;99.90
22813;DHT22;11573;51.334;3.244;2022-12-29T15:34:46;8.60;99.90
22813;DHT22;11573;51.334;3.244;2022-12-29T15:37:25;8.40;99.90
22813;DHT22;11573;51.334;3.244;2022-12-29T15:39:53;8.30;99.90
22813;DHT22;11573;51.334;3.244;2022-12-29T15:45:09;8.20;99.90
22813;DHT22;11573;51.334;3.244;2022-12-29T15:47:38;8.20;99.90
22813;DHT22;11573;51.334;3.244;2022-12-29T15:50:21;8.10;99.90
22813;DHT22;11573;51.334;3.244;2022-12-29T15:52:49;8.10;99.90
22813;DHT22;11573;51.334;3.244;2022-12-29T15:55:52;8.10;99.90
22813;DHT22;11573;51.334;3.244;2022-12-29T15:58:29;8.00;99.90
22813;DHT22;11573;51.334;3.244;2022-12-29T16:00:58;8.00;99.90
22813;DHT22;11573;51.334;3.244;2022-12-29T16:03:29;8.00;99.90
22813;DHT22;11573;51.334;3.244;2022-12-29T16:08:56;7.90;99.90
22813;DHT22;11573;51.334;3.244;2022-12-29T16:11:27;7.90;99.90
22813;DHT22;11573;51.334;3.244;2022-12-29T16:13:56;7.80;99.90
22813;DHT22;11573;51.334;3.244;2022-12-29T16:16:36;7.80;99.90
22813;DHT22;11573;51.334;3.244;2022-12-29T16:19:20;7.80;99.90
22813;DHT22;11573;51.334;3.244;2022-12-29T16:21:48;7.70;99.90
22813;DHT22;11573;51.334;3.244;2022-12-29T16:24:20;7.70;99.90
22813;DHT22;11573;51.334;3.244;2022-12-29T16:26:50;7.70;99.90
22813;DHT22;11573;51.334;3.244;2022-12-29T16:29:19;7.70;99.90
22813;DHT22;11573;51.334;3.244;2022-12-29T16:31:55;7.70;99.90
22813;DHT22;11573;51.334;3.244;2022-12-29T16:34:43;7.70;99.90
22813;DHT22;11573;51.334;3.244;2022-12-29T16:37:32;7.70;99.90
22813;DHT22;11573;51.334;3.244;2022-12-29T16:42:47;7.60;99.90
22813;DHT22;11573;51.334;3.244;2022-12-29T16:48:09;7.60;99.90
22813;DHT22;11573;51.334;3.244;2022-12-29T16:50:39;7.60;99.90
22813;DHT22;11573;51.334;3.244;2022-12-29T16:53:25;7.60;99.90
22813;DHT22;11573;51.334;3.244;2022-12-29T16:55:54;7.60;99.90
22813;DHT22;11573;51.334;3.244;2022-12-29T16:58:25;7.70;99.90
22813;DHT22;11573;51.334;3.244;2022-12-29T17:00:55;7.60;99.90
22813;DHT22;11573;51.334;3.244;2022-12-29T17:03:32;7.70;99.90
22813;DHT22;11573;51.334;3.244;2022-12-29T17:06:01;7.60;99.90
22813;DHT22;11573;51.334;3.244;2022-12-29T17:08:28;7.70;99.90
22813;DHT22;11573;51.334;3.244;2022-12-29T17:10:56;7.80;99.90
22813;DHT22;11573;51.334;3.244;2022-12-29T17:13:42;7.90;99.90
22813;DHT22;11573;51.334;3.244;2022-12-29T17:16:10;7.80;99.90
22813;DHT22;11573;51.334;3.244;2022-12-29T17:18:38;7.80;99.90
22813;DHT22;11573;51.334;3.244;2022-12-29T17:21:05;7.80;99.90
22813;DHT22;11573;51.334;3.244;2022-12-29T17:23:32;7.80;99.90
22813;DHT22;11573;51.334;3.244;2022-12-29T17:26:01;7.80;99.90
22813;DHT22;11573;51.334;3.244;2022-12-29T17:28:29;7.80;99.90
22813;DHT22;11573;51.334;3.244;2022-12-29T17:31:02;7.80;99.90
22813;DHT22;11573;51.334;3.244;2022-12-29T17:33:34;7.80;99.90
22813;DHT22;11573;51.334;3.244;2022-12-29T17:36:02;7.70;99.90
22813;DHT22;11573;51.334;3.244;2022-12-29T17:38:31;7.80;99.90
22813;DHT22;11573;51.334;3.244;2022-12-29T17:41:00;7.80;99.90
22813;DHT22;11573;51.334;3.244;2022-12-29T17:43:27;7.80;99.90
22813;DHT22;11573;51.334;3.244;2022-12-29T17:46:02;7.90;99.90
22813;DHT22;11573;51.334;3.244;2022-12-29T17:48:31;7.90;99.90
22813;DHT22;11573;51.334;3.244;2022-12-29T17:50:58;7.90;99.90
22813;DHT22;11573;51.334;3.244;2022-12-29T17:53:28;7.90;99.90
22813;DHT22;11573;51.334;3.244;2022-12-29T17:55:55;8.00;99.90
22813;DHT22;11573;51.334;3.244;2022-12-29T17:58:25;8.00;99.90
22813;DHT22;11573;51.334;3.244;2022-12-29T18:00:54;8.10;99.90
22813;DHT22;11573;51.334;3.244;2022-12-29T18:05:58;8.10;99.90
22813;DHT22;11573;51.334;3.244;2022-12-29T18:08:25;8.20;99.90
22813;DHT22;11573;51.334;3.244;2022-12-29T18:10:54;8.20;99.90
22813;DHT22;11573;51.334;3.244;2022-12-29T18:13:29;8.10;99.90
22813;DHT22;11573;51.334;3.244;2022-12-29T18:16:12;8.20;99.90
22813;DHT22;11573;51.334;3.244;2022-12-29T18:18:39;8.10;99.90
22813;DHT22;11573;51.334;3.244;2022-12-29T18:21:14;8.10;99.90
22813;DHT22;11573;51.334;3.244;2022-12-29T18:23:42;8.10;99.90
22813;DHT22;11573;51.334;3.244;2022-12-29T18:26:16;8.10;99.90
22813;DHT22;11573;51.334;3.244;2022-12-29T18:28:54;8.00;99.90
22813;DHT22;11573;51.334;3.244;2022-12-29T18:31:23;8.00;99.90
22813;DHT22;11573;51.334;3.244;2022-12-29T18:33:51;7.90;99.90
22813;DHT22;11573;51.334;3.244;2022-12-29T18:36:20;7.90;99.90
22813;DHT22;11573;51.334;3.244;2022-12-29T18:38:47;7.80;99.90
22813;DHT22;11573;51.334;3.244;2022-12-29T18:41:21;7.80;99.90
22813;DHT22;11573;51.334;3.244;2022-12-29T18:43:49;7.80;99.90
22813;DHT22;11573;51.334;3.244;2022-12-29T18:46:17;7.70;99.90
22813;DHT22;11573;51.334;3.244;2022-12-29T18:48:49;7.70;99.90
22813;DHT22;11573;51.334;3.244;2022-12-29T18:51:19;7.70;99.90
22813;DHT22;11573;51.334;3.244;2022-12-29T18:53:46;7.70;99.90
22813;DHT22;11573;51.334;3.244;2022-12-29T18:56:14;7.80;99.90
22813;DHT22;11573;51.334;3.244;2022-12-29T18:58:40;7.80;99.90
22813;DHT22;11573;51.334;3.244;2022-12-29T19:01:18;7.70;99.90